createdAt,value
2019-04-14T00:01:04.811Z,5.08
2019-04-14T00:03:46.090Z,5.08
2019-04-14T00:06:16.076Z,5.11
2019-04-14T00:08:46.036Z,5.14
2019-04-14T00:11:16.828Z,5.13
2019-04-14T00:13:47.755Z,5.13
2019-04-14T00:16:18.437Z,5.12
2019-04-14T00:18:49.089Z,5.10
2019-04-14T00:21:19.359Z,5.13
2019-04-14T00:23:50.079Z,5.15
2019-04-14T00:26:33.394Z,5.15
2019-04-14T00:29:04.617Z,5.10
2019-04-14T00:31:34.908Z,5.03
2019-04-14T00:34:07.267Z,4.93
2019-04-14T00:36:48.115Z,4.89
2019-04-14T00:39:29.328Z,4.85
2019-04-14T00:42:10.162Z,4.81
2019-04-14T00:44:41.463Z,4.81
2019-04-14T00:47:28.967Z,4.76
2019-04-14T00:49:59.412Z,4.76
2019-04-14T00:52:29.815Z,4.76
2019-04-14T00:55:00.972Z,4.80
2019-04-14T00:57:31.150Z,4.83
2019-04-14T01:00:01.789Z,4.86
2019-04-14T01:02:31.854Z,4.88
2019-04-14T01:05:02.524Z,4.94
2019-04-14T01:07:32.734Z,4.95
2019-04-14T01:10:02.407Z,4.91
2019-04-14T01:12:32.136Z,4.87
2019-04-14T01:15:02.980Z,4.84
2019-04-14T01:17:33.079Z,4.76
2019-04-14T01:20:03.632Z,4.68
2019-04-14T01:22:33.576Z,4.60
2019-04-14T01:25:04.367Z,4.58
2019-04-14T01:27:34.226Z,4.54
2019-04-14T01:30:05.029Z,4.51
2019-04-14T01:32:35.126Z,4.50
2019-04-14T01:35:05.736Z,4.54
2019-04-14T01:37:35.458Z,4.60
2019-04-14T01:40:07.558Z,4.64
2019-04-14T01:42:37.747Z,4.68
2019-04-14T01:45:10.041Z,4.69
2019-04-14T01:47:39.943Z,4.69
2019-04-14T01:50:10.526Z,4.76
2019-04-14T01:52:41.799Z,4.90
2019-04-14T01:55:15.626Z,4.95
2019-04-14T01:57:45.960Z,4.97
2019-04-14T02:00:33.773Z,4.95
2019-04-14T02:03:06.116Z,4.91
2019-04-14T02:05:36.451Z,4.90
2019-04-14T02:08:07.092Z,4.90
2019-04-14T02:10:36.927Z,4.92
2019-04-14T02:13:07.166Z,4.91
2019-04-14T02:15:37.392Z,4.98
2019-04-14T02:18:07.821Z,4.99
2019-04-14T02:20:38.200Z,4.99
2019-04-14T02:23:08.280Z,5.00
2019-04-14T02:25:38.258Z,4.98
2019-04-14T02:28:09.043Z,5.03
2019-04-14T02:30:48.385Z,5.10
2019-04-14T02:33:40.840Z,5.21
2019-04-14T02:36:14.455Z,5.30
2019-04-14T02:41:33.758Z,5.39
2019-04-14T02:43:51.069Z,5.41
2019-04-14T02:46:15.517Z,5.38
2019-04-14T02:48:58.531Z,5.38
2019-04-14T02:51:20.772Z,5.40
2019-04-14T02:53:53.888Z,5.42
2019-04-14T02:56:21.776Z,5.48
2019-04-14T02:58:52.315Z,5.50
2019-04-14T03:01:23.926Z,5.57
2019-04-14T03:03:54.248Z,5.61
2019-04-14T03:08:59.168Z,5.68
2019-04-14T03:11:30.874Z,5.73
2019-04-14T03:13:58.477Z,5.76
2019-04-14T03:16:44.347Z,5.83
2019-04-14T03:19:06.432Z,5.85
2019-04-14T03:21:42.103Z,5.90
2019-04-14T03:24:09.382Z,5.94
2019-04-14T03:26:49.529Z,5.96
2019-04-14T03:29:49.845Z,6.01
2019-04-14T03:32:23.701Z,6.07
2019-04-14T03:34:58.960Z,6.12
2019-04-14T03:39:46.238Z,6.21
2019-04-14T03:45:00.478Z,6.30
2019-04-14T03:47:25.772Z,6.34
2019-04-14T03:54:44.414Z,6.46
2019-04-14T03:56:55.895Z,6.52
2019-04-14T03:59:26.138Z,6.49
2019-04-14T04:01:56.642Z,6.54
2019-04-14T04:04:27.474Z,6.57
2019-04-14T04:06:57.541Z,6.61
2019-04-14T04:09:34.652Z,6.61
2019-04-14T04:12:05.216Z,6.64
2019-04-14T04:14:35.726Z,6.64
2019-04-14T04:17:12.598Z,6.64
2019-04-14T04:19:42.638Z,6.62
2019-04-14T04:22:15.047Z,6.64
2019-04-14T04:24:50.019Z,6.69
2019-04-14T04:27:27.123Z,6.71
2019-04-14T04:30:01.707Z,6.68
2019-04-14T04:32:49.445Z,6.69
2019-04-14T04:35:32.917Z,6.67
2019-04-14T04:38:09.797Z,6.65
2019-04-14T04:40:39.728Z,6.70
2019-04-14T04:43:10.172Z,6.75
2019-04-14T04:45:40.821Z,6.76
2019-04-14T04:48:10.921Z,6.78
2019-04-14T04:50:41.055Z,6.80
2019-04-14T04:53:11.522Z,6.87
2019-04-14T04:55:41.645Z,6.91
2019-04-14T04:58:12.078Z,6.94
2019-04-14T05:00:41.866Z,6.97
2019-04-14T05:03:12.462Z,7.00
2019-04-14T05:06:11.927Z,7.05
2019-04-14T05:08:50.202Z,7.11
2019-04-14T05:11:27.412Z,7.14
2019-04-14T05:13:58.683Z,7.14
2019-04-14T05:16:28.330Z,7.15
2019-04-14T05:19:13.136Z,7.20
2019-04-14T05:21:32.055Z,7.23
2019-04-14T05:24:02.795Z,7.27
2019-04-14T05:26:33.105Z,7.34
2019-04-14T05:29:03.588Z,7.39
2019-04-14T05:31:33.653Z,7.45
2019-04-14T05:34:04.377Z,7.46
2019-04-14T05:36:34.614Z,7.46
2019-04-14T05:39:05.139Z,7.50
2019-04-14T05:41:35.405Z,7.54
2019-04-14T05:44:06.290Z,7.55
2019-04-14T05:46:36.068Z,7.56
2019-04-14T05:49:06.557Z,7.57
2019-04-14T05:51:37.270Z,7.60
2019-04-14T05:54:07.838Z,7.62
2019-04-14T05:56:38.103Z,7.68
2019-04-14T05:59:08.903Z,7.75
2019-04-14T06:01:39.245Z,7.79
2019-04-14T06:04:09.361Z,7.86
2019-04-14T06:06:39.107Z,7.89
2019-04-14T06:09:09.339Z,7.88
2019-04-14T06:11:38.969Z,7.90
2019-04-14T06:14:08.583Z,7.94
2019-04-14T06:16:38.340Z,7.95
2019-04-14T06:19:07.976Z,7.96
2019-04-14T06:21:37.572Z,7.95
2019-04-14T06:24:07.183Z,8.01
2019-04-14T06:26:36.788Z,8.05
2019-04-14T06:29:06.425Z,8.12
2019-04-14T06:31:53.859Z,8.19
2019-04-14T06:34:30.922Z,8.26
2019-04-14T06:37:02.257Z,8.31
2019-04-14T06:39:42.600Z,8.38
2019-04-14T06:42:12.205Z,8.49
2019-04-14T06:44:41.804Z,8.51
2019-04-14T06:47:12.913Z,8.56
2019-04-14T06:49:48.846Z,8.63
2019-04-14T06:52:13.861Z,8.71
2019-04-14T06:54:43.493Z,8.66
2019-04-14T06:57:14.555Z,8.61
2019-04-14T06:59:44.136Z,8.52
2019-04-14T07:02:13.731Z,8.50
2019-04-14T07:04:43.333Z,8.53
2019-04-14T07:07:12.942Z,8.56
2019-04-14T07:09:42.548Z,8.62
2019-04-14T07:12:12.165Z,8.64
2019-04-14T07:14:41.813Z,8.69
2019-04-14T07:17:11.422Z,8.76
2019-04-14T07:19:42.592Z,8.85
2019-04-14T07:22:12.228Z,8.89
2019-04-14T07:24:41.836Z,8.96
2019-04-14T07:27:11.497Z,8.97
2019-04-14T07:29:42.717Z,9.05
2019-04-14T07:32:23.085Z,9.17
2019-04-14T07:34:54.457Z,9.35
2019-04-14T07:37:25.731Z,9.46
2019-04-14T07:39:56.971Z,9.54
2019-04-14T07:42:39.880Z,9.62
2019-04-14T07:45:17.576Z,9.68
2019-04-14T07:47:48.838Z,9.71
2019-04-14T07:50:28.868Z,9.69
2019-04-14T07:53:18.120Z,9.67
2019-04-14T07:55:47.548Z,9.75
2019-04-14T07:58:27.672Z,9.92
2019-04-14T08:01:09.774Z,10.05
2019-04-14T08:03:43.627Z,10.01
2019-04-14T08:06:13.675Z,10.01
2019-04-14T08:08:43.291Z,10.05
2019-04-14T08:11:13.448Z,9.97
2019-04-14T08:13:43.089Z,9.82
2019-04-14T08:16:12.642Z,9.80
2019-04-14T08:18:42.265Z,9.69
2019-04-14T08:21:11.860Z,9.62
2019-04-14T08:23:41.453Z,9.53
2019-04-14T08:26:11.061Z,9.36
2019-04-14T08:28:40.671Z,9.35
2019-04-14T08:31:10.282Z,9.42
2019-04-14T08:33:39.891Z,9.61
2019-04-14T08:36:09.497Z,9.73
2019-04-14T08:38:39.109Z,9.81
2019-04-14T08:41:08.725Z,9.81
2019-04-14T08:43:40.003Z,9.83
2019-04-14T08:46:20.228Z,9.92
2019-04-14T08:48:54.051Z,9.86
2019-04-14T08:51:31.279Z,9.82
2019-04-14T08:54:17.812Z,9.84
2019-04-14T08:56:51.849Z,9.80
2019-04-14T08:59:36.541Z,9.76
2019-04-14T09:02:10.369Z,9.70
2019-04-14T09:04:57.916Z,9.80
2019-04-14T09:07:29.170Z,9.84
2019-04-14T09:10:03.129Z,9.99
2019-04-14T09:12:34.367Z,10.13
2019-04-14T09:15:04.745Z,10.32
2019-04-14T09:17:34.356Z,10.39
2019-04-14T09:20:05.103Z,10.51
2019-04-14T09:22:34.762Z,10.52
2019-04-14T09:25:05.580Z,10.15
2019-04-14T09:27:35.198Z,9.91
2019-04-14T09:30:07.096Z,9.84
2019-04-14T09:32:36.694Z,9.83
2019-04-14T09:35:08.447Z,9.91
2019-04-14T09:37:38.050Z,10.07
2019-04-14T09:40:08.247Z,10.16
2019-04-14T09:42:37.854Z,10.26
2019-04-14T09:45:08.912Z,10.48
2019-04-14T09:47:38.526Z,10.60
2019-04-14T09:50:08.285Z,10.62
2019-04-14T09:52:37.926Z,10.58
2019-04-14T09:55:08.208Z,10.61
2019-04-14T09:57:37.819Z,10.64
2019-04-14T10:00:12.002Z,10.73
2019-04-14T10:02:41.600Z,10.86
2019-04-14T10:05:11.278Z,10.63
2019-04-14T10:07:40.873Z,10.40
2019-04-14T10:10:10.613Z,10.27
2019-04-14T10:12:40.215Z,10.22
2019-04-14T10:15:10.176Z,10.43
2019-04-14T10:17:40.126Z,10.70
2019-04-14T10:20:09.795Z,10.71
2019-04-14T10:22:39.385Z,10.57
2019-04-14T10:25:09.061Z,10.42
2019-04-14T10:27:38.650Z,10.22
2019-04-14T10:30:09.575Z,10.03
2019-04-14T10:32:39.156Z,9.93
2019-04-14T10:35:08.862Z,9.95
2019-04-14T10:37:38.438Z,9.94
2019-04-14T10:40:08.869Z,10.06
2019-04-14T10:42:38.459Z,10.19
2019-04-14T10:45:08.259Z,10.15
2019-04-14T10:47:37.853Z,10.12
2019-04-14T10:50:07.790Z,10.17
2019-04-14T10:52:37.468Z,10.31
2019-04-14T10:55:08.874Z,10.54
2019-04-14T10:57:38.478Z,10.39
2019-04-14T11:00:11.802Z,10.44
2019-04-14T11:02:41.383Z,10.34
2019-04-14T11:05:11.204Z,10.27
2019-04-14T11:07:40.814Z,10.16
2019-04-14T11:10:11.319Z,10.04
2019-04-14T11:12:40.919Z,10.01
2019-04-14T11:15:15.345Z,9.86
2019-04-14T11:17:43.867Z,9.86
2019-04-14T11:20:13.663Z,9.88
2019-04-14T11:22:44.797Z,10.04
2019-04-14T11:25:14.405Z,10.24
2019-04-14T11:27:44.006Z,10.15
2019-04-14T11:30:15.751Z,9.88
2019-04-14T11:32:46.980Z,9.64
2019-04-14T11:35:24.094Z,9.65
2019-04-14T11:38:01.176Z,9.71
2019-04-14T11:40:37.886Z,9.79
2019-04-14T11:43:07.450Z,9.76
2019-04-14T11:45:37.061Z,9.64
2019-04-14T11:48:06.756Z,9.51
2019-04-14T11:50:36.397Z,9.42
2019-04-14T11:53:05.978Z,9.32
2019-04-14T11:55:35.638Z,9.33
2019-04-14T11:58:05.229Z,9.28
2019-04-14T12:00:48.162Z,9.26
2019-04-14T12:03:22.119Z,9.27
2019-04-14T12:06:03.519Z,9.37
2019-04-14T12:08:37.606Z,9.33
2019-04-14T12:11:07.210Z,9.40
2019-04-14T12:13:36.802Z,9.56
2019-04-14T12:16:06.744Z,9.74
2019-04-14T12:18:36.349Z,9.91
2019-04-14T12:21:05.959Z,10.03
2019-04-14T12:23:35.565Z,10.08
2019-04-14T12:26:06.039Z,9.99
2019-04-14T12:28:36.118Z,9.80
2019-04-14T12:31:08.616Z,9.77
2019-04-14T12:33:40.339Z,9.78
2019-04-14T12:36:12.755Z,9.74
2019-04-14T12:38:42.344Z,9.74
2019-04-14T12:41:17.707Z,9.70
2019-04-14T12:43:49.532Z,9.72
2019-04-14T12:46:38.756Z,9.72
2019-04-14T12:49:15.768Z,9.71
2019-04-14T12:51:47.010Z,9.76
2019-04-14T12:54:16.612Z,9.79
2019-04-14T12:56:46.209Z,9.74
2019-04-14T12:59:17.446Z,9.72
2019-04-14T13:01:54.318Z,9.71
2019-04-14T13:04:23.905Z,9.73
2019-04-14T13:06:53.514Z,9.77
2019-04-14T13:09:23.115Z,9.82
2019-04-14T13:11:52.717Z,9.87
2019-04-14T13:14:22.314Z,9.88
2019-04-14T13:16:51.929Z,9.83
2019-04-14T13:19:21.553Z,9.78
2019-04-14T13:21:51.151Z,9.82
2019-04-14T13:24:20.743Z,9.87
2019-04-14T13:26:51.460Z,9.92
2019-04-14T13:29:21.056Z,9.90
2019-04-14T13:31:50.765Z,9.92
2019-04-14T13:34:20.351Z,9.95
2019-04-14T13:36:50.016Z,9.97
2019-04-14T13:39:19.664Z,9.97
2019-04-14T13:41:49.258Z,9.96
2019-04-14T13:44:18.861Z,10.00
2019-04-14T13:46:48.479Z,9.99
2019-04-14T13:49:18.068Z,9.98
2019-04-14T13:51:47.699Z,10.00
2019-04-14T13:54:17.293Z,9.97
2019-04-14T13:56:46.907Z,9.92
2019-04-14T13:59:16.487Z,9.95
2019-04-14T14:01:47.641Z,9.95
2019-04-14T14:04:17.244Z,9.94
2019-04-14T14:06:46.851Z,9.93
2019-04-14T14:09:16.456Z,9.97
2019-04-14T14:11:53.410Z,9.98
2019-04-14T14:14:29.598Z,9.98
2019-04-14T14:17:04.548Z,9.98
2019-04-14T14:19:38.395Z,10.02
2019-04-14T14:22:16.280Z,10.01
2019-04-14T14:24:47.589Z,10.03
2019-04-14T14:27:17.195Z,10.03
2019-04-14T14:29:46.812Z,10.02
2019-04-14T14:32:29.821Z,10.08
2019-04-14T14:34:59.432Z,10.12
2019-04-14T14:37:29.057Z,10.10
2019-04-14T14:39:58.660Z,10.15
2019-04-14T14:42:29.801Z,10.15
2019-04-14T14:45:01.048Z,10.13
2019-04-14T14:47:33.057Z,10.23
2019-04-14T14:50:19.640Z,10.32
2019-04-14T14:52:49.259Z,10.36
2019-04-14T14:55:18.888Z,10.44
2019-04-14T14:57:48.525Z,10.44
2019-04-14T15:00:23.501Z,10.34
2019-04-14T15:02:53.147Z,10.22
2019-04-14T15:05:22.730Z,10.06
2019-04-14T15:07:52.342Z,10.00
2019-04-14T15:10:21.932Z,9.96
2019-04-14T15:12:51.555Z,9.96
2019-04-14T15:15:21.167Z,9.95
2019-04-14T15:17:50.804Z,9.98
2019-04-14T15:20:20.402Z,10.04
2019-04-14T15:22:52.263Z,10.12
2019-04-14T15:25:21.347Z,10.22
2019-04-14T15:27:50.948Z,10.30
2019-04-14T15:30:22.047Z,10.38
2019-04-14T15:32:51.658Z,10.43
2019-04-14T15:35:21.291Z,10.52
2019-04-14T15:37:50.890Z,10.60
2019-04-14T15:40:20.646Z,10.65
2019-04-14T15:42:50.241Z,10.67
2019-04-14T15:45:19.848Z,10.67
2019-04-14T15:47:49.454Z,10.68
2019-04-14T15:50:19.067Z,10.72
2019-04-14T15:52:48.776Z,10.73
2019-04-14T15:55:19.380Z,10.73
2019-04-14T15:57:51.588Z,10.87
2019-04-14T16:00:35.885Z,10.88
2019-04-14T16:03:19.478Z,10.88
2019-04-14T16:06:05.317Z,10.80
2019-04-14T16:08:36.555Z,10.78
2019-04-14T16:11:10.561Z,10.73
2019-04-14T16:13:44.282Z,10.73
2019-04-14T16:16:15.529Z,10.74
2019-04-14T16:18:55.688Z,10.78
2019-04-14T16:21:25.307Z,10.78
2019-04-14T16:23:54.905Z,10.78
2019-04-14T16:26:24.279Z,10.83
2019-04-14T16:28:55.509Z,10.83
2019-04-14T16:31:42.487Z,10.85
2019-04-14T16:34:13.742Z,10.85
2019-04-14T16:36:45.003Z,10.84
2019-04-14T16:39:14.590Z,10.88
2019-04-14T16:41:44.203Z,10.86
2019-04-14T16:44:13.812Z,10.89
2019-04-14T16:46:43.420Z,10.87
2019-04-14T16:49:13.019Z,10.87
2019-04-14T16:51:46.700Z,10.78
2019-04-14T16:54:20.762Z,10.76
2019-04-14T16:56:54.789Z,10.76
2019-04-14T16:59:24.372Z,10.78
2019-04-14T17:01:53.986Z,10.71
2019-04-14T17:04:23.594Z,10.58
2019-04-14T17:06:53.202Z,10.48
2019-04-14T17:09:22.796Z,10.37
2019-04-14T17:11:52.419Z,10.30
2019-04-14T17:14:32.247Z,10.27
2019-04-14T17:17:19.654Z,10.26
2019-04-14T17:20:06.131Z,10.35
2019-04-14T17:22:53.536Z,10.44
2019-04-14T17:25:25.475Z,10.48
2019-04-14T17:28:11.936Z,10.49
2019-04-14T17:30:43.196Z,10.46
2019-04-14T17:33:17.118Z,10.39
2019-04-14T17:36:00.348Z,10.28
2019-04-14T17:38:32.502Z,10.17
2019-04-14T17:41:06.814Z,10.02
2019-04-14T17:43:38.146Z,9.90
2019-04-14T17:46:09.401Z,9.83
2019-04-14T17:48:49.372Z,9.78
2019-04-14T17:51:24.423Z,9.71
2019-04-14T17:54:04.492Z,9.64
2019-04-14T17:56:35.727Z,9.54
2019-04-14T17:59:12.523Z,9.45
2019-04-14T18:01:49.314Z,9.30
2019-04-14T18:04:21.138Z,9.22
2019-04-14T18:06:55.023Z,9.15
2019-04-14T18:09:29.002Z,9.06
2019-04-14T18:12:06.201Z,8.97
2019-04-14T18:14:44.250Z,8.95
2019-04-14T18:17:17.357Z,8.94
2019-04-14T18:19:54.243Z,8.91
2019-04-14T18:22:23.873Z,8.86
2019-04-14T18:24:53.487Z,8.86
2019-04-14T18:27:23.091Z,8.81
2019-04-14T18:29:56.985Z,8.78
2019-04-14T18:32:43.046Z,8.77
2019-04-14T18:35:31.212Z,8.75
2019-04-14T18:38:18.385Z,8.71
2019-04-14T18:40:49.637Z,8.73
2019-04-14T18:43:34.076Z,8.71
2019-04-14T18:46:14.293Z,8.70
2019-04-14T18:48:56.006Z,8.68
2019-04-14T18:51:27.279Z,8.71
2019-04-14T18:54:14.728Z,8.81
2019-04-14T18:56:50.210Z,8.92
2019-04-14T18:59:33.351Z,9.08
2019-04-14T19:02:02.976Z,9.19
2019-04-14T19:04:32.913Z,9.30
2019-04-14T19:07:02.552Z,9.40
2019-04-14T19:09:32.149Z,9.49
2019-04-14T19:12:09.575Z,9.55
2019-04-14T19:14:40.859Z,9.59
2019-04-14T19:17:12.137Z,9.60
2019-04-14T19:19:43.409Z,9.59
2019-04-14T19:22:13.017Z,9.66
2019-04-14T19:24:44.864Z,9.70
2019-04-14T19:27:14.452Z,9.71
2019-04-14T19:29:44.045Z,9.75
2019-04-14T19:32:13.654Z,9.78
2019-04-14T19:34:44.873Z,9.81
2019-04-14T19:37:14.482Z,9.87
2019-04-14T19:39:44.089Z,9.85
2019-04-14T19:42:13.699Z,9.89
2019-04-14T19:44:45.212Z,9.92
2019-04-14T19:47:15.657Z,9.97
2019-04-14T19:49:45.252Z,10.04
2019-04-14T19:52:14.844Z,10.05
2019-04-14T19:54:44.461Z,10.04
2019-04-14T19:57:14.084Z,10.04
2019-04-14T19:59:44.585Z,10.04
2019-04-14T20:02:14.360Z,10.06
2019-04-14T20:04:43.994Z,10.04
2019-04-14T20:07:13.902Z,10.02
2019-04-14T20:09:43.504Z,9.99
2019-04-14T20:12:14.364Z,9.94
2019-04-14T20:14:43.997Z,9.96
2019-04-14T20:17:17.871Z,9.99
2019-04-14T20:19:49.343Z,10.03
2019-04-14T20:22:20.556Z,10.06
2019-04-14T20:24:51.805Z,10.15
2019-04-14T20:27:35.180Z,10.13
2019-04-14T20:30:08.542Z,10.02
2019-04-14T20:32:39.770Z,9.88
2019-04-14T20:35:10.108Z,9.75
2019-04-14T20:37:39.710Z,9.67
2019-04-14T20:40:09.821Z,9.58
2019-04-14T20:42:39.441Z,9.54
2019-04-14T20:45:11.561Z,9.47
2019-04-14T20:47:41.163Z,9.44
2019-04-14T20:50:11.332Z,9.41
2019-04-14T20:52:40.999Z,9.41
2019-04-14T20:55:11.080Z,9.40
2019-04-14T20:57:40.681Z,9.42
2019-04-14T21:00:11.314Z,9.40
2019-04-14T21:02:44.979Z,9.40
2019-04-14T21:05:22.263Z,9.40
2019-04-14T21:08:09.731Z,9.36
2019-04-14T21:10:43.771Z,9.37
2019-04-14T21:13:17.822Z,9.35
2019-04-14T21:15:49.094Z,9.37
2019-04-14T21:18:22.776Z,9.39
2019-04-14T21:20:56.678Z,9.43
2019-04-14T21:23:30.636Z,9.51
2019-04-14T21:26:01.889Z,9.56
2019-04-14T21:28:36.875Z,9.61
2019-04-14T21:31:17.090Z,9.66
2019-04-14T21:33:57.220Z,9.70
2019-04-14T21:36:38.505Z,9.72
2019-04-14T21:39:27.078Z,9.75
2019-04-14T21:41:56.678Z,9.76
2019-04-14T21:44:26.295Z,9.75
2019-04-14T21:46:56.021Z,9.75
2019-04-14T21:49:26.191Z,9.73
2019-04-14T21:52:07.617Z,9.76
2019-04-14T21:54:37.787Z,9.72
2019-04-14T21:57:13.001Z,9.68
2019-04-14T22:00:00.325Z,9.68
2019-04-14T22:02:47.985Z,9.74
2019-04-14T22:05:35.456Z,9.77
2019-04-14T22:08:19.096Z,9.79
2019-04-14T22:11:02.264Z,9.82
2019-04-14T22:13:32.386Z,9.84
2019-04-14T22:16:01.998Z,9.87
2019-04-14T22:18:31.604Z,9.83
2019-04-14T22:21:01.209Z,9.85
2019-04-14T22:23:30.807Z,9.88
2019-04-14T22:26:00.414Z,9.90
2019-04-14T22:28:30.042Z,9.92
2019-04-14T22:30:59.645Z,9.96
2019-04-14T22:33:29.274Z,10.00
2019-04-14T22:35:58.894Z,10.01
2019-04-14T22:38:28.488Z,10.01
2019-04-14T22:40:58.116Z,10.01
2019-04-14T22:43:27.874Z,10.04
2019-04-14T22:45:57.506Z,10.02
2019-04-14T22:48:27.100Z,10.02
2019-04-14T22:50:56.812Z,10.03
2019-04-14T22:53:26.400Z,10.04
2019-04-14T22:55:56.004Z,10.06
2019-04-14T22:58:25.645Z,10.06
2019-04-14T23:01:02.044Z,10.08
2019-04-14T23:03:48.527Z,10.07
2019-04-14T23:06:35.873Z,10.06
2019-04-14T23:09:09.809Z,10.05
2019-04-14T23:11:43.612Z,10.04
2019-04-14T23:14:23.794Z,10.03
2019-04-14T23:16:57.893Z,10.02
2019-04-14T23:19:34.972Z,10.00
2019-04-14T23:22:07.902Z,10.01
2019-04-14T23:24:41.914Z,9.98
2019-04-14T23:27:11.527Z,9.97
2019-04-14T23:29:41.130Z,9.95
2019-04-14T23:32:10.787Z,9.93
2019-04-14T23:34:40.419Z,9.92
2019-04-14T23:37:10.043Z,9.91
2019-04-14T23:39:39.635Z,9.88
2019-04-14T23:42:09.230Z,9.87
2019-04-14T23:44:38.840Z,9.86
2019-04-14T23:47:08.463Z,9.89
2019-04-14T23:49:38.068Z,9.86
2019-04-14T23:52:07.694Z,9.86
2019-04-14T23:54:37.302Z,9.83
2019-04-14T23:57:07.021Z,9.81
2019-04-14T23:59:36.633Z,9.81
